createdAt,value
2023-05-10T00:00:54.115Z,9.32
2023-05-10T00:03:43.548Z,9.29
2023-05-10T00:06:32.507Z,9.23
2023-05-10T00:09:20.536Z,9.26
2023-05-10T00:12:08.668Z,9.19
2023-05-10T00:14:56.656Z,9.11
2023-05-10T00:17:44.715Z,9.07
2023-05-10T00:20:34.270Z,9.11
2023-05-10T00:23:22.364Z,9.10
2023-05-10T00:26:10.319Z,9.04
2023-05-10T00:28:59.525Z,9.04
2023-05-10T00:31:47.571Z,9.04
2023-05-10T00:34:35.631Z,9.09
2023-05-10T00:37:25.104Z,9.04
2023-05-10T00:40:14.199Z,8.90
2023-05-10T00:43:02.475Z,8.86
2023-05-10T00:45:51.426Z,8.89
2023-05-10T00:48:39.522Z,8.84
2023-05-10T00:51:27.709Z,8.81
2023-05-10T00:54:17.949Z,8.84
2023-05-10T00:57:06.283Z,8.85
2023-05-10T00:59:54.367Z,9.12
2023-05-10T01:02:43.328Z,9.30
2023-05-10T01:05:31.465Z,9.61
2023-05-10T01:08:19.960Z,9.72
2023-05-10T01:11:09.514Z,9.83
2023-05-10T01:13:59.249Z,9.90
2023-05-10T01:16:49.566Z,9.98
2023-05-10T01:19:39.010Z,10.03
2023-05-10T01:23:00.159Z,10.11
2023-05-10T01:26:29.349Z,10.20
2023-05-10T01:29:45.086Z,10.32
2023-05-10T01:32:38.636Z,10.37
2023-05-10T01:35:36.470Z,10.44
2023-05-10T01:38:34.955Z,10.45
2023-05-10T01:41:30.199Z,10.48
2023-05-10T01:44:22.515Z,10.50
2023-05-10T01:47:13.361Z,10.58
2023-05-10T01:50:06.218Z,10.63
2023-05-10T01:52:58.272Z,10.64
2023-05-10T01:55:49.882Z,10.69
2023-05-10T01:58:41.678Z,10.72
2023-05-10T02:01:29.791Z,10.76
2023-05-10T02:04:20.796Z,10.79
2023-05-10T02:07:11.599Z,10.86
2023-05-10T02:10:00.542Z,10.87
2023-05-10T02:12:51.493Z,10.89
2023-05-10T02:15:42.141Z,10.92
2023-05-10T02:18:31.060Z,10.93
2023-05-10T02:21:21.245Z,10.93
2023-05-10T02:24:12.761Z,10.97
2023-05-10T02:27:02.360Z,10.97
2023-05-10T02:29:51.884Z,10.99
2023-05-10T02:32:40.887Z,10.97
2023-05-10T02:35:29.912Z,10.92
2023-05-10T02:38:21.021Z,10.92
2023-05-10T02:41:12.324Z,10.93
2023-05-10T02:44:03.598Z,10.92
2023-05-10T02:46:51.926Z,10.93
2023-05-10T02:49:39.998Z,10.90
2023-05-10T02:52:31.925Z,10.92
2023-05-10T02:55:23.382Z,10.94
2023-05-10T02:58:13.205Z,10.92
2023-05-10T03:01:02.005Z,10.96
2023-05-10T03:03:50.151Z,11.00
2023-05-10T03:06:38.301Z,10.98
2023-05-10T03:09:26.743Z,10.97
2023-05-10T03:12:20.347Z,10.98
2023-05-10T03:15:15.841Z,11.00
2023-05-10T03:18:08.882Z,11.02
2023-05-10T03:21:01.360Z,10.97
2023-05-10T03:23:54.146Z,11.00
2023-05-10T03:26:44.943Z,10.99
2023-05-10T03:29:33.948Z,11.01
2023-05-10T03:32:24.062Z,11.00
2023-05-10T03:35:14.177Z,10.97
2023-05-10T03:38:02.232Z,10.98
2023-05-10T03:40:50.261Z,10.97
2023-05-10T03:43:38.254Z,10.98
2023-05-10T03:46:26.337Z,10.93
2023-05-10T03:49:15.752Z,10.94
2023-05-10T03:52:03.751Z,10.96
2023-05-10T03:54:51.843Z,10.95
2023-05-10T03:57:39.918Z,10.91
2023-05-10T04:00:27.951Z,10.92
2023-05-10T04:03:16.358Z,10.87
2023-05-10T04:06:07.055Z,10.76
2023-05-10T04:08:56.204Z,10.69
2023-05-10T04:11:44.257Z,10.72
2023-05-10T04:14:32.190Z,10.53
2023-05-10T04:17:20.258Z,10.53
2023-05-10T04:20:09.363Z,10.40
2023-05-10T04:22:58.873Z,10.51
2023-05-10T04:25:46.888Z,10.52
2023-05-10T04:28:35.036Z,10.51
2023-05-10T04:31:23.108Z,10.44
2023-05-10T04:34:11.120Z,10.37
2023-05-10T04:36:59.094Z,10.44
2023-05-10T04:39:48.590Z,10.45
2023-05-10T04:42:36.538Z,10.32
2023-05-10T04:45:24.476Z,10.38
2023-05-10T04:48:12.427Z,10.35
2023-05-10T04:51:00.580Z,10.47
2023-05-10T04:54:01.703Z,10.48
2023-05-10T04:56:54.232Z,10.48
2023-05-10T04:59:42.335Z,10.58
2023-05-10T05:02:30.586Z,10.54
2023-05-10T05:05:18.769Z,10.49
2023-05-10T05:08:06.877Z,10.46
2023-05-10T05:10:55.372Z,10.45
2023-05-10T05:13:44.831Z,10.56
2023-05-10T05:16:32.954Z,10.57
2023-05-10T05:19:20.952Z,10.41
2023-05-10T05:22:09.074Z,10.60
2023-05-10T05:24:57.455Z,10.62
2023-05-10T05:27:45.512Z,10.69
2023-05-10T05:30:34.897Z,10.76
2023-05-10T05:33:22.865Z,10.59
2023-05-10T05:36:11.202Z,10.58
2023-05-10T05:38:59.352Z,10.70
2023-05-10T05:41:47.366Z,10.71
2023-05-10T05:44:35.349Z,10.65
2023-05-10T05:47:24.884Z,10.84
2023-05-10T05:50:13.112Z,10.94
2023-05-10T05:53:01.067Z,10.97
2023-05-10T05:55:55.930Z,11.16
2023-05-10T05:58:43.917Z,11.31
2023-05-10T06:01:31.951Z,11.40
2023-05-10T06:04:21.385Z,11.64
2023-05-10T06:07:09.410Z,11.67
2023-05-10T06:09:57.872Z,11.93
2023-05-10T06:12:46.087Z,12.03
2023-05-10T06:15:34.673Z,11.97
2023-05-10T06:18:22.988Z,12.19
2023-05-10T06:21:12.276Z,12.32
2023-05-10T06:24:00.225Z,12.14
2023-05-10T06:26:48.178Z,12.08
2023-05-10T06:29:36.257Z,12.27
2023-05-10T06:32:24.270Z,12.27
2023-05-10T06:35:12.297Z,12.35
2023-05-10T06:38:02.016Z,12.29
2023-05-10T06:40:50.034Z,12.22
2023-05-10T06:43:40.875Z,12.56
2023-05-10T06:46:28.996Z,12.62
2023-05-10T06:49:17.141Z,12.42
2023-05-10T06:52:05.414Z,12.76
2023-05-10T06:54:54.753Z,12.69
2023-05-10T06:57:42.844Z,12.58
2023-05-10T07:00:30.981Z,12.50
2023-05-10T07:03:20.201Z,12.62
2023-05-10T07:06:13.331Z,12.69
2023-05-10T07:09:06.824Z,12.67
2023-05-10T07:11:56.552Z,12.66
2023-05-10T07:14:44.679Z,12.62
2023-05-10T07:17:34.388Z,12.66
2023-05-10T07:20:22.592Z,12.54
2023-05-10T07:23:10.630Z,12.86
2023-05-10T07:25:58.926Z,12.82
2023-05-10T07:28:48.950Z,12.78
2023-05-10T07:31:37.093Z,12.63
2023-05-10T07:34:25.174Z,12.36
2023-05-10T07:37:13.292Z,12.28
2023-05-10T07:40:01.230Z,12.22
2023-05-10T07:42:49.288Z,12.32
2023-05-10T07:45:38.673Z,12.34
2023-05-10T07:48:26.649Z,12.33
2023-05-10T07:51:14.715Z,12.49
2023-05-10T07:54:03.519Z,12.66
2023-05-10T07:56:51.602Z,12.66
2023-05-10T07:59:39.614Z,12.72
2023-05-10T08:02:29.212Z,12.66
2023-05-10T08:05:17.729Z,12.67
2023-05-10T08:08:06.047Z,12.79
2023-05-10T08:10:54.105Z,12.82
2023-05-10T08:13:42.082Z,13.07
2023-05-10T08:16:30.246Z,13.44
2023-05-10T08:19:22.193Z,13.74
2023-05-10T08:22:11.144Z,13.59
2023-05-10T08:24:59.125Z,13.91
2023-05-10T08:27:47.169Z,13.89
2023-05-10T08:30:35.221Z,14.00
2023-05-10T08:33:23.210Z,13.95
2023-05-10T08:36:15.197Z,13.93
2023-05-10T08:39:03.275Z,13.79
2023-05-10T08:41:53.834Z,13.65
2023-05-10T08:44:42.053Z,13.71
2023-05-10T08:47:31.213Z,13.77
2023-05-10T08:50:22.972Z,13.72
2023-05-10T08:53:14.136Z,13.42
2023-05-10T08:56:04.059Z,12.94
2023-05-10T08:58:52.711Z,12.99
2023-05-10T09:01:41.242Z,13.10
2023-05-10T09:04:30.187Z,13.02
2023-05-10T09:07:18.956Z,12.98
2023-05-10T09:10:10.192Z,13.61
2023-05-10T09:12:59.521Z,13.70
2023-05-10T09:15:48.977Z,14.24
2023-05-10T09:18:36.947Z,14.35
2023-05-10T09:21:24.952Z,14.51
2023-05-10T09:24:14.118Z,14.34
2023-05-10T09:27:03.699Z,13.97
2023-05-10T09:29:55.280Z,14.32
2023-05-10T09:32:44.712Z,14.41
2023-05-10T09:35:34.455Z,14.54
2023-05-10T09:38:22.446Z,14.78
2023-05-10T09:41:18.423Z,14.66
2023-05-10T09:44:09.484Z,14.21
2023-05-10T09:46:58.006Z,14.84
2023-05-10T09:49:46.095Z,14.80
2023-05-10T09:52:49.276Z,14.50
2023-05-10T09:55:42.180Z,14.18
2023-05-10T09:58:30.177Z,14.06
2023-05-10T10:01:19.608Z,13.79
2023-05-10T10:04:09.298Z,13.56
2023-05-10T10:07:04.983Z,13.57
2023-05-10T10:09:53.884Z,13.52
2023-05-10T10:12:43.154Z,13.44
2023-05-10T10:15:31.323Z,13.00
2023-05-10T10:18:24.948Z,12.64
2023-05-10T10:21:15.563Z,12.95
2023-05-10T10:24:06.254Z,12.74
2023-05-10T10:26:56.899Z,12.91
2023-05-10T10:29:52.433Z,12.67
2023-05-10T10:32:57.510Z,12.69
2023-05-10T10:35:47.887Z,12.75
2023-05-10T10:38:40.588Z,12.89
2023-05-10T10:41:34.193Z,12.78
2023-05-10T10:44:36.483Z,12.88
2023-05-10T10:47:25.918Z,12.50
2023-05-10T10:50:14.616Z,12.69
2023-05-10T10:53:13.141Z,12.87
2023-05-10T10:56:10.367Z,13.10
2023-05-10T10:59:02.621Z,13.29
2023-05-10T11:01:54.203Z,13.10
2023-05-10T11:04:47.621Z,13.07
2023-05-10T11:07:35.815Z,13.35
2023-05-10T11:10:26.615Z,13.49
2023-05-10T11:13:14.669Z,13.60
2023-05-10T11:16:16.538Z,13.38
2023-05-10T11:19:06.179Z,13.09
2023-05-10T11:22:14.756Z,13.39
2023-05-10T11:25:03.414Z,13.50
2023-05-10T11:27:52.937Z,13.58
2023-05-10T11:30:41.740Z,14.10
2023-05-10T11:33:29.838Z,14.19
2023-05-10T11:36:19.081Z,13.96
2023-05-10T11:39:07.578Z,13.99
2023-05-10T11:41:56.335Z,13.69
2023-05-10T11:44:47.808Z,13.82
2023-05-10T11:47:36.650Z,14.21
2023-05-10T11:50:24.745Z,14.43
2023-05-10T11:53:12.664Z,14.65
2023-05-10T11:56:05.446Z,14.53
2023-05-10T11:58:57.691Z,14.69
2023-05-10T12:01:47.273Z,14.78
2023-05-10T12:04:35.606Z,14.54
2023-05-10T12:07:24.007Z,14.33
2023-05-10T12:10:15.629Z,13.71
2023-05-10T12:13:04.152Z,13.83
2023-05-10T12:15:52.275Z,14.12
2023-05-10T12:18:42.802Z,14.11
2023-05-10T12:21:32.386Z,13.94
2023-05-10T12:24:22.463Z,13.91
2023-05-10T12:27:10.856Z,14.10
2023-05-10T12:30:01.204Z,14.07
2023-05-10T12:32:49.575Z,13.97
2023-05-10T12:35:47.928Z,13.94
2023-05-10T12:38:39.038Z,14.62
2023-05-10T12:41:26.980Z,14.86
2023-05-10T12:44:15.021Z,14.62
2023-05-10T12:47:03.024Z,14.63
2023-05-10T12:49:52.093Z,14.48
2023-05-10T12:52:41.560Z,14.13
2023-05-10T12:55:29.449Z,13.77
2023-05-10T12:58:31.496Z,13.89
2023-05-10T13:01:23.401Z,13.76
2023-05-10T13:04:11.498Z,14.15
2023-05-10T13:06:59.957Z,14.00
2023-05-10T13:09:49.685Z,14.16
2023-05-10T13:12:37.756Z,14.58
2023-05-10T13:15:25.812Z,14.06
2023-05-10T13:18:13.866Z,14.12
2023-05-10T13:21:01.911Z,14.22
2023-05-10T13:23:49.925Z,14.04
2023-05-10T13:26:39.218Z,14.35
2023-05-10T13:29:27.153Z,13.97
2023-05-10T13:32:15.085Z,13.76
2023-05-10T13:35:04.088Z,13.72
2023-05-10T13:37:52.885Z,13.61
2023-05-10T13:40:40.783Z,13.71
2023-05-10T13:43:31.168Z,13.77
2023-05-10T13:46:19.625Z,13.80
2023-05-10T13:49:08.020Z,14.04
2023-05-10T13:51:55.978Z,13.95
2023-05-10T13:54:43.967Z,13.72
2023-05-10T13:57:32.178Z,14.15
2023-05-10T14:00:21.989Z,14.07
2023-05-10T14:03:12.066Z,13.62
2023-05-10T14:06:00.442Z,13.94
2023-05-10T14:08:48.358Z,14.23
2023-05-10T14:11:36.273Z,14.25
2023-05-10T14:14:24.162Z,14.57
2023-05-10T14:17:13.495Z,14.49
2023-05-10T14:20:01.597Z,14.80
2023-05-10T14:22:49.901Z,14.68
2023-05-10T14:25:38.916Z,14.81
2023-05-10T14:28:27.176Z,15.10
2023-05-10T14:31:15.537Z,15.05
2023-05-10T14:34:04.893Z,14.70
2023-05-10T14:36:52.889Z,14.65
2023-05-10T14:39:41.213Z,15.10
2023-05-10T14:42:29.468Z,15.40
2023-05-10T14:45:17.714Z,15.82
2023-05-10T14:48:06.766Z,15.23
2023-05-10T14:50:56.279Z,15.46
2023-05-10T14:53:44.657Z,15.00
2023-05-10T14:56:33.837Z,15.21
2023-05-10T14:59:22.646Z,14.63
2023-05-10T15:02:11.420Z,15.12
2023-05-10T15:05:00.123Z,15.44
2023-05-10T15:07:50.179Z,15.84
2023-05-10T15:10:38.256Z,15.99
2023-05-10T15:13:26.415Z,16.00
2023-05-10T15:16:14.787Z,15.50
2023-05-10T15:19:02.908Z,15.14
2023-05-10T15:21:50.938Z,14.67
2023-05-10T15:24:40.226Z,14.99
2023-05-10T15:27:28.307Z,14.84
2023-05-10T15:30:16.536Z,14.91
2023-05-10T15:33:04.508Z,14.43
2023-05-10T15:35:54.516Z,14.20
2023-05-10T15:38:42.449Z,14.06
2023-05-10T15:41:32.022Z,14.07
2023-05-10T15:44:20.073Z,14.06
2023-05-10T15:47:08.099Z,14.06
2023-05-10T15:49:56.132Z,14.13
2023-05-10T15:52:44.199Z,13.77
2023-05-10T15:55:32.288Z,13.93
2023-05-10T15:58:21.703Z,14.23
2023-05-10T16:01:09.806Z,13.82
2023-05-10T16:03:57.747Z,13.90
2023-05-10T16:06:46.048Z,13.78
2023-05-10T16:09:34.089Z,14.01
2023-05-10T16:12:22.130Z,13.96
2023-05-10T16:15:12.043Z,13.89
2023-05-10T16:18:00.042Z,14.09
2023-05-10T16:20:48.120Z,14.06
2023-05-10T16:23:36.737Z,13.56
2023-05-10T16:26:24.840Z,13.68
2023-05-10T16:29:12.778Z,13.63
2023-05-10T16:32:02.108Z,13.72
2023-05-10T16:34:50.340Z,13.30
2023-05-10T16:37:38.622Z,13.75
2023-05-10T16:40:26.681Z,13.88
2023-05-10T16:43:14.607Z,13.78
2023-05-10T16:46:02.666Z,13.82
2023-05-10T16:48:52.020Z,13.51
2023-05-10T16:51:40.859Z,13.47
2023-05-10T16:54:30.105Z,13.33
2023-05-10T16:57:18.132Z,13.29
2023-05-10T17:00:08.510Z,13.23
2023-05-10T17:02:57.106Z,13.33
2023-05-10T17:05:46.521Z,13.12
2023-05-10T17:08:34.525Z,13.22
2023-05-10T17:11:22.560Z,13.38
2023-05-10T17:14:10.815Z,13.60
2023-05-10T17:16:58.767Z,13.54
2023-05-10T17:19:46.825Z,13.61
2023-05-10T17:22:36.167Z,13.50
2023-05-10T17:25:24.302Z,13.19
2023-05-10T17:28:12.343Z,13.63
2023-05-10T17:31:00.450Z,13.60
2023-05-10T17:33:48.367Z,13.56
2023-05-10T17:36:36.795Z,13.55
2023-05-10T17:39:26.185Z,13.45
2023-05-10T17:42:17.401Z,13.43
2023-05-10T17:45:05.979Z,13.48
2023-05-10T17:47:53.992Z,13.57
2023-05-10T17:50:43.047Z,13.65
2023-05-10T17:53:31.409Z,13.34
2023-05-10T17:56:22.238Z,13.37
2023-05-10T17:59:10.290Z,13.38
2023-05-10T18:01:58.182Z,13.17
2023-05-10T18:04:46.352Z,12.86
2023-05-10T18:07:35.856Z,13.04
2023-05-10T18:10:25.375Z,12.96
2023-05-10T18:13:14.714Z,13.09
2023-05-10T18:16:04.580Z,13.13
2023-05-10T18:18:52.617Z,13.11
2023-05-10T18:21:40.748Z,13.05
2023-05-10T18:24:38.362Z,12.72
2023-05-10T18:27:27.471Z,12.75
2023-05-10T18:30:17.355Z,12.77
2023-05-10T18:33:05.333Z,12.65
2023-05-10T18:35:53.353Z,12.72
2023-05-10T18:38:41.725Z,12.88
2023-05-10T18:41:29.729Z,12.79
2023-05-10T18:44:18.817Z,12.85
2023-05-10T18:47:08.294Z,12.76
2023-05-10T18:49:56.418Z,12.62
2023-05-10T18:52:44.378Z,12.67
2023-05-10T18:55:32.635Z,12.65
2023-05-10T18:58:20.755Z,12.67
2023-05-10T19:01:08.990Z,12.66
2023-05-10T19:03:58.875Z,12.63
2023-05-10T19:06:46.922Z,12.51
2023-05-10T19:09:34.830Z,12.45
2023-05-10T19:12:22.810Z,12.37
2023-05-10T19:15:11.690Z,12.41
2023-05-10T19:17:59.672Z,12.29
2023-05-10T19:20:49.083Z,12.27
2023-05-10T19:23:38.690Z,12.32
2023-05-10T19:26:26.793Z,12.23
2023-05-10T19:29:14.820Z,12.24
2023-05-10T19:32:02.887Z,12.17
2023-05-10T19:34:52.726Z,12.07
2023-05-10T19:37:45.857Z,12.03
2023-05-10T19:40:33.759Z,12.06
2023-05-10T19:43:21.712Z,12.03
2023-05-10T19:46:10.001Z,12.01
2023-05-10T19:48:58.162Z,12.06
2023-05-10T19:51:46.208Z,12.10
2023-05-10T19:54:35.680Z,12.11
2023-05-10T19:57:23.994Z,12.11
2023-05-10T20:00:13.156Z,12.07
2023-05-10T20:03:01.207Z,12.03
2023-05-10T20:05:49.390Z,11.90
2023-05-10T20:08:37.357Z,11.87
2023-05-10T20:11:26.834Z,11.91
2023-05-10T20:14:14.982Z,11.91
2023-05-10T20:17:03.150Z,11.87
2023-05-10T20:19:51.157Z,11.86
2023-05-10T20:22:39.198Z,11.88
2023-05-10T20:25:27.265Z,11.80
2023-05-10T20:28:16.661Z,11.73
2023-05-10T20:31:04.729Z,11.69
2023-05-10T20:33:52.754Z,11.76
2023-05-10T20:36:40.803Z,11.65
2023-05-10T20:39:28.961Z,11.63
2023-05-10T20:42:16.927Z,11.62
2023-05-10T20:45:07.703Z,11.63
2023-05-10T20:47:56.208Z,11.64
2023-05-10T20:50:44.240Z,11.63
2023-05-10T20:53:32.237Z,11.67
2023-05-10T20:56:20.185Z,11.62
2023-05-10T20:59:08.197Z,11.57
2023-05-10T21:01:57.749Z,11.56
2023-05-10T21:04:45.897Z,11.60
2023-05-10T21:07:33.911Z,11.56
2023-05-10T21:10:22.156Z,11.54
2023-05-10T21:13:10.289Z,11.56
2023-05-10T21:15:58.458Z,11.56
2023-05-10T21:18:48.261Z,11.50
2023-05-10T21:21:36.244Z,11.61
2023-05-10T21:24:24.326Z,11.64
2023-05-10T21:27:12.325Z,11.55
2023-05-10T21:30:00.748Z,11.56
2023-05-10T21:32:48.810Z,11.55
2023-05-10T21:35:39.402Z,11.53
2023-05-10T21:38:28.623Z,11.48
2023-05-10T21:41:16.595Z,11.50
2023-05-10T21:44:05.091Z,11.50
2023-05-10T21:46:53.127Z,11.55
2023-05-10T21:49:41.180Z,11.56
2023-05-10T21:52:30.603Z,11.55
2023-05-10T21:55:19.366Z,11.50
2023-05-10T21:58:07.323Z,11.51
2023-05-10T22:00:55.384Z,11.46
2023-05-10T22:03:43.472Z,11.45
2023-05-10T22:06:31.886Z,11.44
2023-05-10T22:09:21.672Z,11.43
2023-05-10T22:12:09.661Z,11.38
2023-05-10T22:15:09.422Z,11.41
2023-05-10T22:17:58.690Z,11.38
2023-05-10T22:20:47.304Z,11.36
2023-05-10T22:23:35.351Z,11.39
2023-05-10T22:26:24.725Z,11.41
2023-05-10T22:29:12.831Z,11.41
2023-05-10T22:32:05.485Z,11.42
2023-05-10T22:34:53.546Z,11.38
2023-05-10T22:37:41.671Z,11.42
2023-05-10T22:40:29.798Z,11.37
2023-05-10T22:43:19.325Z,11.38
2023-05-10T22:46:07.455Z,11.35
2023-05-10T22:48:55.904Z,11.29
2023-05-10T22:51:43.981Z,11.37
2023-05-10T22:54:33.193Z,11.32
2023-05-10T22:57:22.961Z,11.33
2023-05-10T23:00:13.759Z,11.35
2023-05-10T23:03:01.898Z,11.35
2023-05-10T23:05:50.028Z,11.37
2023-05-10T23:08:38.044Z,11.40
2023-05-10T23:11:26.171Z,11.41
2023-05-10T23:14:14.138Z,11.45
2023-05-10T23:17:03.494Z,11.49
2023-05-10T23:19:51.550Z,11.45
2023-05-10T23:22:40.144Z,11.43
2023-05-10T23:25:28.198Z,11.45
2023-05-10T23:28:16.345Z,11.46
2023-05-10T23:31:04.576Z,11.48
2023-05-10T23:33:54.138Z,11.47
2023-05-10T23:36:42.245Z,11.46
2023-05-10T23:39:30.306Z,11.47
2023-05-10T23:42:18.388Z,11.43
2023-05-10T23:45:07.036Z,11.42
2023-05-10T23:47:54.948Z,11.43
2023-05-10T23:50:46.632Z,11.42
2023-05-10T23:53:34.570Z,11.41
2023-05-10T23:56:22.971Z,11.40
2023-05-10T23:59:11.071Z,11.38
